Other Surface Observations
Issued by NWS Los Angeles, CA

Current Version | Previous Version | Text Only | Print | Product List | Glossary On
Versions: 1 2 3 4 5 6 7 8 9 10 11 12 13 14 15 16 17 18 19 20 21 22 23 24 25 26 27 28 29 30 31 32 33 34 35 36 37 38 39 40 41 42 43 44 45 46
000
SXUS56 KLOX 302155
OSOLOX

OFFSHORE OIL PLATFORM IRENE WEATHER
NATIONAL WEATHER SERVICE OXNARD CA
155 PM PST FRI JAN 30 2015

OBSERVATION FROM DRILLING RIG "IRENE"
LOCATION 34 DEG 37 MIN N...120 DEG 44 MIN W...30 MILES SW
OF SANTA MARIA...ANEMOMETER LOCATED 305 FEET ABOVE SEA LEVEL.

SPECI 302145Z 31022KT 8SM BKN010 14/12 A2990 RMKS SEAS 6 TO
8 FEET

$$





















































































































































































































































































USA.gov is the U.S. government's official web portal to all federal, state and local government web resources and services.